createdAt,value
2023-05-17T00:01:47.110Z,6.17
2023-05-17T00:04:16.514Z,6.03
2023-05-17T00:07:10.539Z,6.12
2023-05-17T00:09:40.101Z,6.16
2023-05-17T00:12:08.768Z,6.06
2023-05-17T00:14:36.944Z,6.16
2023-05-17T00:17:07.510Z,6.22
2023-05-17T00:19:35.776Z,6.23
2023-05-17T00:22:04.109Z,6.19
2023-05-17T00:24:32.266Z,6.06
2023-05-17T00:27:01.868Z,6.06
2023-05-17T00:29:30.075Z,6.10
2023-05-17T00:31:58.370Z,6.11
2023-05-17T00:34:26.673Z,6.02
2023-05-17T00:36:54.878Z,5.98
2023-05-17T00:39:23.113Z,5.87
2023-05-17T00:41:51.426Z,5.88
2023-05-17T00:44:20.992Z,6.03
2023-05-17T00:46:50.510Z,5.94
2023-05-17T00:49:19.456Z,5.97
2023-05-17T00:51:47.823Z,6.03
2023-05-17T00:54:17.079Z,5.95
2023-05-17T00:56:46.007Z,5.99
2023-05-17T00:59:15.369Z,5.86
2023-05-17T01:01:45.366Z,4.97
2023-05-17T01:04:14.234Z,6.40
2023-05-17T01:06:42.771Z,5.66
2023-05-17T01:09:11.643Z,5.61
2023-05-17T01:11:50.105Z,5.67
2023-05-17T01:14:38.449Z,5.64
2023-05-17T01:17:18.454Z,5.54
2023-05-17T01:20:06.365Z,5.51
2023-05-17T01:22:46.094Z,5.51
2023-05-17T01:25:30.914Z,5.56
2023-05-17T01:28:03.657Z,5.50
2023-05-17T01:30:34.249Z,5.49
2023-05-17T01:33:04.273Z,5.34
2023-05-17T01:35:32.705Z,5.31
2023-05-17T01:38:01.092Z,5.43
2023-05-17T01:40:30.611Z,5.28
2023-05-17T01:43:10.323Z,5.20
2023-05-17T01:45:45.832Z,5.15
2023-05-17T01:48:21.727Z,5.33
2023-05-17T01:50:52.231Z,5.29
2023-05-17T01:53:27.257Z,5.28
2023-05-17T01:55:58.616Z,5.28
2023-05-17T01:58:32.019Z,5.21
2023-05-17T02:01:02.535Z,5.18
2023-05-17T02:03:31.052Z,5.20
2023-05-17T02:06:06.971Z,5.20
2023-05-17T02:08:35.193Z,5.20
2023-05-17T02:11:03.589Z,5.17
2023-05-17T02:13:33.533Z,5.12
2023-05-17T02:16:02.046Z,5.05
2023-05-17T02:18:30.732Z,5.08
2023-05-17T02:20:59.147Z,5.20
2023-05-17T02:23:27.443Z,5.20
2023-05-17T02:25:56.281Z,5.09
2023-05-17T02:28:24.615Z,5.29
2023-05-17T02:30:54.688Z,5.17
2023-05-17T02:33:23.194Z,5.08
2023-05-17T02:35:51.553Z,5.27
2023-05-17T02:38:21.090Z,5.14
2023-05-17T02:40:49.715Z,5.09
2023-05-17T02:43:18.030Z,5.11
2023-05-17T02:45:46.327Z,5.18
2023-05-17T02:48:16.036Z,5.00
2023-05-17T02:50:44.298Z,4.92
2023-05-17T02:53:12.659Z,4.92
2023-05-17T02:55:41.095Z,5.02
2023-05-17T02:58:09.499Z,5.06
2023-05-17T03:00:37.797Z,4.97
2023-05-17T03:03:06.193Z,4.86
2023-05-17T03:05:36.519Z,4.92
2023-05-17T03:08:05.609Z,4.77
2023-05-17T03:10:34.010Z,4.75
2023-05-17T03:13:02.291Z,4.76
2023-05-17T03:15:35.087Z,4.63
2023-05-17T03:18:04.910Z,4.67
2023-05-17T03:20:33.293Z,4.69
2023-05-17T03:23:02.922Z,4.74
2023-05-17T03:25:31.455Z,4.77
2023-05-17T03:27:59.793Z,4.71
2023-05-17T03:30:28.239Z,4.58
2023-05-17T03:32:57.110Z,4.57
2023-05-17T03:35:25.895Z,4.51
2023-05-17T03:37:56.652Z,4.61
2023-05-17T03:40:27.377Z,4.51
2023-05-17T03:42:55.734Z,4.47
2023-05-17T03:45:25.309Z,4.64
2023-05-17T03:47:53.660Z,4.76
2023-05-17T03:50:22.696Z,4.69
2023-05-17T03:52:51.648Z,3.65
2023-05-17T03:55:20.316Z,4.61
2023-05-17T03:57:50.183Z,4.42
2023-05-17T04:00:21.916Z,4.67
2023-05-17T04:02:51.650Z,4.54
2023-05-17T04:05:21.014Z,4.53
2023-05-17T04:07:50.352Z,4.61
2023-05-17T04:10:19.075Z,4.52
2023-05-17T04:12:49.894Z,4.54
2023-05-17T04:15:18.217Z,4.43
2023-05-17T04:17:46.581Z,4.41
2023-05-17T04:20:16.227Z,4.55
2023-05-17T04:22:44.699Z,4.62
2023-05-17T04:25:13.448Z,4.62
2023-05-17T04:27:42.168Z,4.59
2023-05-17T04:30:14.303Z,4.64
2023-05-17T04:32:43.252Z,4.80
2023-05-17T04:35:11.675Z,4.76
2023-05-17T04:37:40.922Z,4.76
2023-05-17T04:40:20.039Z,4.74
2023-05-17T04:42:48.740Z,4.85
2023-05-17T04:45:18.945Z,5.39
2023-05-17T04:47:47.444Z,4.88
2023-05-17T04:50:16.814Z,4.74
2023-05-17T04:52:45.444Z,4.75
2023-05-17T04:55:14.200Z,4.57
2023-05-17T04:57:42.542Z,4.68
2023-05-17T05:00:15.363Z,4.43
2023-05-17T05:02:48.114Z,4.81
2023-05-17T05:05:16.647Z,4.81
2023-05-17T05:07:47.227Z,4.89
2023-05-17T05:10:16.062Z,5.01
2023-05-17T05:12:44.828Z,5.00
2023-05-17T05:15:13.726Z,5.02
2023-05-17T05:17:47.045Z,5.09
2023-05-17T05:20:16.460Z,5.30
2023-05-17T05:22:45.151Z,5.32
2023-05-17T05:25:14.563Z,5.38
2023-05-17T05:27:42.767Z,5.59
2023-05-17T05:30:13.444Z,5.47
2023-05-17T05:32:41.778Z,5.58
2023-05-17T05:35:12.525Z,5.56
2023-05-17T05:37:42.452Z,5.45
2023-05-17T05:40:12.015Z,5.58
2023-05-17T05:42:41.998Z,5.62
2023-05-17T05:45:12.736Z,5.63
2023-05-17T05:47:42.249Z,5.86
2023-05-17T05:50:12.611Z,5.90
2023-05-17T05:52:42.197Z,5.82
2023-05-17T05:55:11.295Z,6.05
2023-05-17T05:57:39.569Z,6.25
2023-05-17T06:00:12.020Z,6.39
2023-05-17T06:02:43.672Z,6.64
2023-05-17T06:05:14.916Z,6.67
2023-05-17T06:07:43.194Z,6.68
2023-05-17T06:10:12.490Z,6.69
2023-05-17T06:12:40.813Z,6.73
2023-05-17T06:15:10.621Z,6.86
2023-05-17T06:17:38.924Z,6.94
2023-05-17T06:20:08.751Z,6.96
2023-05-17T06:22:38.376Z,7.04
2023-05-17T06:25:07.578Z,7.06
2023-05-17T06:27:35.882Z,7.23
2023-05-17T06:30:07.274Z,7.39
2023-05-17T06:32:36.034Z,7.39
2023-05-17T06:35:04.770Z,7.30
2023-05-17T06:37:33.089Z,7.54
2023-05-17T06:40:10.536Z,7.56
2023-05-17T06:42:44.199Z,7.75
2023-05-17T06:45:13.833Z,7.74
2023-05-17T06:47:42.285Z,7.76
2023-05-17T06:50:11.343Z,7.71
2023-05-17T06:52:39.658Z,7.59
2023-05-17T06:55:10.350Z,7.67
2023-05-17T06:57:38.687Z,7.67
2023-05-17T07:00:11.197Z,7.70
2023-05-17T07:02:39.876Z,7.86
2023-05-17T07:05:09.401Z,8.05
2023-05-17T07:07:37.696Z,8.15
2023-05-17T07:10:09.392Z,8.35
2023-05-17T07:12:37.767Z,8.69
2023-05-17T07:15:07.476Z,8.87
2023-05-17T07:17:35.991Z,8.98
2023-05-17T07:20:06.210Z,9.04
2023-05-17T07:22:35.141Z,9.31
2023-05-17T07:25:04.402Z,9.28
2023-05-17T07:27:34.209Z,9.45
2023-05-17T07:30:03.438Z,9.30
2023-05-17T07:32:31.991Z,9.31
2023-05-17T07:35:02.245Z,9.29
2023-05-17T07:37:30.690Z,9.76
2023-05-17T07:39:58.926Z,9.72
2023-05-17T07:42:28.258Z,9.72
2023-05-17T07:44:57.888Z,9.89
2023-05-17T07:47:26.470Z,10.09
2023-05-17T07:49:56.567Z,10.11
2023-05-17T07:52:24.779Z,10.22
2023-05-17T07:54:52.995Z,10.22
2023-05-17T07:57:21.224Z,10.11
2023-05-17T07:59:49.457Z,10.26
2023-05-17T08:02:19.030Z,9.92
2023-05-17T08:04:48.795Z,10.10
2023-05-17T08:07:17.931Z,10.49
2023-05-17T08:09:46.138Z,10.55
2023-05-17T08:12:14.398Z,10.47
2023-05-17T08:14:42.716Z,10.63
2023-05-17T08:17:10.955Z,10.92
2023-05-17T08:19:41.018Z,10.91
2023-05-17T08:22:09.561Z,10.92
2023-05-17T08:24:44.918Z,11.04
2023-05-17T08:27:13.303Z,11.07
2023-05-17T08:29:41.715Z,11.02
2023-05-17T08:32:10.005Z,10.62
2023-05-17T08:34:38.254Z,10.70
2023-05-17T08:37:08.260Z,10.70
2023-05-17T08:39:36.560Z,10.96
2023-05-17T08:42:09.606Z,11.34
2023-05-17T08:44:38.761Z,11.64
2023-05-17T08:47:09.301Z,11.59
2023-05-17T08:49:38.097Z,11.88
2023-05-17T08:52:11.144Z,11.67
2023-05-17T08:54:39.489Z,11.62
2023-05-17T08:57:08.906Z,11.30
2023-05-17T08:59:38.177Z,11.34
2023-05-17T09:02:07.353Z,11.62
2023-05-17T09:04:36.230Z,11.56
2023-05-17T09:07:28.877Z,11.19
2023-05-17T09:09:58.557Z,11.17
2023-05-17T09:12:27.184Z,11.59
2023-05-17T09:14:55.763Z,11.63
2023-05-17T09:17:24.186Z,11.98
2023-05-17T09:19:52.739Z,12.32
2023-05-17T09:22:21.539Z,12.29
2023-05-17T09:24:51.449Z,12.08
2023-05-17T09:27:21.098Z,11.93
2023-05-17T09:29:49.314Z,11.86
2023-05-17T09:32:20.630Z,11.95
2023-05-17T09:34:50.043Z,11.91
2023-05-17T09:37:20.859Z,11.80
2023-05-17T09:39:49.474Z,12.24
2023-05-17T09:42:20.706Z,12.58
2023-05-17T09:44:53.194Z,12.66
2023-05-17T09:47:26.894Z,12.61
2023-05-17T09:49:57.481Z,12.72
2023-05-17T09:52:26.990Z,12.69
2023-05-17T09:54:57.496Z,12.81
2023-05-17T09:57:29.629Z,12.72
2023-05-17T09:59:58.528Z,12.77
2023-05-17T10:02:30.171Z,12.68
2023-05-17T10:04:59.362Z,12.73
2023-05-17T10:07:33.310Z,13.00
2023-05-17T10:10:01.970Z,13.26
2023-05-17T10:12:35.217Z,13.26
2023-05-17T10:15:04.988Z,12.71
2023-05-17T10:17:35.845Z,12.40
2023-05-17T10:20:08.745Z,12.28
2023-05-17T10:22:38.169Z,11.97
2023-05-17T10:25:11.315Z,11.91
2023-05-17T10:27:44.085Z,11.74
2023-05-17T10:30:14.609Z,11.53
2023-05-17T10:32:44.109Z,11.49
2023-05-17T10:35:16.048Z,11.65
2023-05-17T10:37:44.375Z,11.65
2023-05-17T10:40:14.331Z,11.72
2023-05-17T10:42:50.904Z,11.69
2023-05-17T10:45:22.897Z,11.65
2023-05-17T10:47:52.886Z,12.01
2023-05-17T10:50:24.434Z,11.67
2023-05-17T10:52:55.873Z,11.70
2023-05-17T10:55:26.184Z,11.82
2023-05-17T10:58:19.920Z,11.60
2023-05-17T11:00:52.031Z,11.80
2023-05-17T11:03:23.694Z,11.98
2023-05-17T11:06:25.336Z,11.81
2023-05-17T11:09:16.066Z,11.65
2023-05-17T11:12:06.158Z,11.54
2023-05-17T11:14:55.664Z,11.49
2023-05-17T11:17:27.541Z,11.43
2023-05-17T11:20:06.013Z,11.33
2023-05-17T11:22:41.155Z,11.48
2023-05-17T11:25:13.062Z,11.63
2023-05-17T11:27:46.598Z,11.26
2023-05-17T11:30:24.463Z,11.35
2023-05-17T11:32:56.051Z,11.38
2023-05-17T11:35:31.169Z,11.04
2023-05-17T11:38:25.046Z,10.95
2023-05-17T11:40:56.224Z,11.19
2023-05-17T11:43:27.353Z,11.06
2023-05-17T11:46:01.477Z,11.00
2023-05-17T11:48:32.226Z,10.95
2023-05-17T11:51:02.380Z,11.07
2023-05-17T11:53:32.815Z,11.17
2023-05-17T11:56:05.357Z,10.87
2023-05-17T11:58:34.299Z,10.99
2023-05-17T12:01:04.431Z,11.53
2023-05-17T12:03:34.701Z,11.48
2023-05-17T12:06:18.712Z,11.52
2023-05-17T12:08:48.332Z,11.59
2023-05-17T12:11:18.277Z,11.62
2023-05-17T12:13:53.029Z,11.45
2023-05-17T12:16:24.895Z,10.59
2023-05-17T12:18:53.803Z,11.50
2023-05-17T12:21:22.253Z,11.40
2023-05-17T12:23:53.437Z,11.77
2023-05-17T12:26:23.652Z,10.99
2023-05-17T12:28:57.510Z,11.51
2023-05-17T12:31:30.974Z,11.38
2023-05-17T12:34:02.231Z,11.55
2023-05-17T12:36:33.510Z,11.58
2023-05-17T12:39:05.650Z,11.36
2023-05-17T12:41:34.247Z,11.43
2023-05-17T12:44:14.428Z,11.51
2023-05-17T12:46:45.063Z,11.51
2023-05-17T12:49:13.452Z,11.56
2023-05-17T12:51:43.424Z,11.65
2023-05-17T12:54:12.987Z,11.73
2023-05-17T12:56:43.879Z,11.70
2023-05-17T12:59:16.790Z,11.70
2023-05-17T13:01:48.982Z,11.53
2023-05-17T13:04:19.049Z,11.66
2023-05-17T13:06:49.432Z,11.35
2023-05-17T13:09:18.886Z,11.47
2023-05-17T13:11:52.322Z,11.67
2023-05-17T13:14:36.817Z,11.78
2023-05-17T13:17:08.905Z,11.93
2023-05-17T13:19:37.767Z,11.95
2023-05-17T13:22:07.695Z,12.00
2023-05-17T13:24:39.728Z,11.97
2023-05-17T13:27:08.711Z,12.04
2023-05-17T13:29:40.560Z,11.84
2023-05-17T13:32:12.836Z,11.70
2023-05-17T13:34:41.849Z,11.81
2023-05-17T13:37:12.485Z,12.15
2023-05-17T13:39:42.133Z,12.04
2023-05-17T13:42:10.862Z,11.66
2023-05-17T13:44:39.601Z,12.11
2023-05-17T13:47:08.369Z,12.22
2023-05-17T13:49:38.141Z,12.01
2023-05-17T13:52:08.895Z,12.09
2023-05-17T13:54:38.174Z,12.02
2023-05-17T13:57:08.194Z,12.22
2023-05-17T13:59:36.697Z,12.04
2023-05-17T14:02:05.254Z,12.41
2023-05-17T14:04:44.824Z,12.52
2023-05-17T14:07:21.670Z,12.43
2023-05-17T14:09:49.977Z,12.21
2023-05-17T14:12:18.292Z,12.43
2023-05-17T14:14:46.557Z,12.30
2023-05-17T14:17:14.800Z,11.85
2023-05-17T14:19:44.479Z,12.09
2023-05-17T14:22:13.769Z,12.15
2023-05-17T14:24:42.162Z,11.95
2023-05-17T14:27:10.390Z,11.56
2023-05-17T14:29:38.648Z,11.57
2023-05-17T14:32:08.044Z,11.66
2023-05-17T14:34:36.350Z,11.44
2023-05-17T14:37:08.688Z,11.81
2023-05-17T14:39:37.372Z,11.82
2023-05-17T14:42:06.606Z,11.99
2023-05-17T14:44:38.689Z,12.20
2023-05-17T14:47:08.851Z,12.29
2023-05-17T14:49:37.073Z,12.24
2023-05-17T14:52:06.857Z,12.21
2023-05-17T14:54:35.633Z,12.47
2023-05-17T14:57:04.970Z,12.76
2023-05-17T14:59:33.301Z,12.79
2023-05-17T15:02:01.548Z,12.80
2023-05-17T15:04:29.927Z,12.92
2023-05-17T15:06:58.948Z,12.94
2023-05-17T15:09:30.778Z,12.74
2023-05-17T15:11:59.170Z,12.75
2023-05-17T15:14:27.444Z,12.85
2023-05-17T15:16:56.340Z,12.93
2023-05-17T15:19:24.703Z,13.04
2023-05-17T15:21:53.011Z,12.96
2023-05-17T15:24:21.260Z,13.01
2023-05-17T15:26:50.844Z,13.04
2023-05-17T15:29:19.331Z,12.67
2023-05-17T15:31:47.538Z,12.58
2023-05-17T15:34:16.033Z,12.77
2023-05-17T15:36:44.455Z,13.04
2023-05-17T15:39:12.738Z,13.22
2023-05-17T15:41:41.014Z,13.41
2023-05-17T15:44:10.700Z,13.61
2023-05-17T15:46:39.279Z,13.28
2023-05-17T15:49:07.604Z,13.10
2023-05-17T15:51:36.038Z,13.13
2023-05-17T15:54:04.388Z,13.08
2023-05-17T15:56:32.690Z,13.20
2023-05-17T15:59:02.714Z,13.06
2023-05-17T16:01:34.200Z,13.43
2023-05-17T16:04:02.480Z,13.59
2023-05-17T16:06:34.854Z,13.38
2023-05-17T16:09:03.655Z,13.39
2023-05-17T16:11:32.410Z,13.13
2023-05-17T16:14:00.742Z,13.28
2023-05-17T16:16:29.119Z,13.44
2023-05-17T16:18:58.772Z,13.43
2023-05-17T16:21:27.074Z,13.45
2023-05-17T16:23:55.444Z,13.49
2023-05-17T16:26:23.720Z,13.10
2023-05-17T16:28:52.108Z,13.11
2023-05-17T16:31:20.775Z,13.03
2023-05-17T16:33:49.189Z,13.06
2023-05-17T16:36:18.853Z,13.25
2023-05-17T16:38:47.189Z,13.25
2023-05-17T16:41:15.412Z,13.38
2023-05-17T16:43:43.616Z,13.19
2023-05-17T16:46:12.028Z,13.25
2023-05-17T16:48:41.027Z,13.35
2023-05-17T16:51:09.271Z,13.04
2023-05-17T16:53:38.864Z,13.52
2023-05-17T16:56:07.664Z,13.38
2023-05-17T16:58:35.910Z,12.59
2023-05-17T17:01:04.176Z,13.17
2023-05-17T17:03:32.637Z,12.92
2023-05-17T17:06:01.025Z,12.85
2023-05-17T17:08:29.313Z,12.98
2023-05-17T17:10:58.968Z,13.00
2023-05-17T17:13:27.679Z,13.07
2023-05-17T17:15:55.993Z,12.93
2023-05-17T17:18:24.289Z,12.82
2023-05-17T17:20:52.582Z,12.85
2023-05-17T17:23:20.799Z,12.93
2023-05-17T17:25:48.988Z,13.10
2023-05-17T17:28:18.536Z,13.57
2023-05-17T17:30:47.512Z,13.02
2023-05-17T17:33:15.746Z,13.18
2023-05-17T17:35:43.961Z,13.34
2023-05-17T17:38:14.659Z,13.31
2023-05-17T17:40:42.864Z,13.41
2023-05-17T17:43:11.108Z,13.67
2023-05-17T17:45:40.719Z,13.81
2023-05-17T17:48:09.000Z,14.10
2023-05-17T17:50:37.186Z,14.00
2023-05-17T17:53:05.400Z,14.40
2023-05-17T17:55:33.624Z,14.51
2023-05-17T17:58:01.906Z,14.40
2023-05-17T18:00:30.346Z,14.39
2023-05-17T18:03:00.266Z,14.11
2023-05-17T18:05:28.835Z,13.96
2023-05-17T18:07:57.884Z,13.84
2023-05-17T18:10:26.161Z,13.81
2023-05-17T18:12:54.907Z,13.68
2023-05-17T18:15:23.340Z,13.98
2023-05-17T18:17:52.243Z,14.10
2023-05-17T18:20:23.162Z,14.01
2023-05-17T18:22:51.416Z,13.99
2023-05-17T18:25:20.033Z,13.91
2023-05-17T18:27:48.274Z,13.55
2023-05-17T18:30:16.567Z,13.29
2023-05-17T18:32:44.995Z,13.07
2023-05-17T18:35:13.770Z,12.79
2023-05-17T18:37:43.634Z,12.88
2023-05-17T18:40:13.816Z,12.62
2023-05-17T18:42:42.286Z,12.43
2023-05-17T18:45:11.810Z,12.12
2023-05-17T18:47:40.124Z,11.94
2023-05-17T18:50:10.032Z,11.69
2023-05-17T18:52:39.350Z,11.38
2023-05-17T18:55:09.898Z,11.40
2023-05-17T18:57:38.155Z,11.19
2023-05-17T19:00:08.618Z,11.17
2023-05-17T19:02:36.900Z,11.14
2023-05-17T19:05:05.895Z,10.91
2023-05-17T19:07:34.197Z,10.78
2023-05-17T19:10:02.429Z,10.58
2023-05-17T19:12:32.024Z,10.49
2023-05-17T19:15:00.262Z,10.41
2023-05-17T19:17:28.547Z,10.11
2023-05-17T19:19:57.191Z,10.20
2023-05-17T19:22:25.447Z,9.95
2023-05-17T19:24:53.774Z,9.45
2023-05-17T19:27:22.018Z,9.86
2023-05-17T19:29:51.727Z,9.71
2023-05-17T19:32:20.516Z,9.74
2023-05-17T19:34:48.748Z,9.56
2023-05-17T19:37:17.079Z,9.43
2023-05-17T19:39:45.377Z,9.41
2023-05-17T19:42:13.647Z,9.28
2023-05-17T19:44:41.873Z,9.09
2023-05-17T19:47:11.555Z,9.20
2023-05-17T19:49:40.039Z,9.08
2023-05-17T19:52:08.914Z,8.96
2023-05-17T19:54:37.181Z,8.87
2023-05-17T19:57:06.141Z,8.67
2023-05-17T19:59:34.602Z,8.83
2023-05-17T20:02:05.783Z,8.68
2023-05-17T20:04:35.556Z,8.70
2023-05-17T20:07:04.190Z,8.58
2023-05-17T20:09:32.440Z,8.58
2023-05-17T20:12:01.053Z,8.43
2023-05-17T20:14:29.556Z,8.60
2023-05-17T20:16:57.838Z,8.57
2023-05-17T20:19:26.278Z,8.43
2023-05-17T20:21:56.202Z,8.31
2023-05-17T20:24:25.911Z,8.36
2023-05-17T20:26:54.192Z,8.26
2023-05-17T20:29:22.450Z,8.28
2023-05-17T20:31:50.751Z,8.18
2023-05-17T20:34:19.514Z,8.09
2023-05-17T20:36:47.877Z,8.06
2023-05-17T20:39:17.927Z,7.99
2023-05-17T20:41:47.683Z,7.94
2023-05-17T20:44:18.738Z,6.97
2023-05-17T20:46:47.262Z,6.81
2023-05-17T20:49:16.942Z,7.55
2023-05-17T20:51:45.726Z,7.57
2023-05-17T20:54:16.044Z,7.42
2023-05-17T20:56:45.760Z,7.22
2023-05-17T20:59:14.031Z,7.25
2023-05-17T21:01:42.384Z,7.48
2023-05-17T21:04:11.271Z,7.52
2023-05-17T21:06:39.528Z,7.48
2023-05-17T21:09:08.379Z,7.41
2023-05-17T21:11:36.716Z,7.25
2023-05-17T21:14:06.306Z,7.30
2023-05-17T21:16:35.412Z,7.18
2023-05-17T21:19:03.867Z,7.19
2023-05-17T21:21:32.152Z,7.32
2023-05-17T21:24:00.371Z,7.37
2023-05-17T21:26:53.675Z,6.99
2023-05-17T21:29:23.704Z,7.08
2023-05-17T21:31:52.022Z,7.03
2023-05-17T21:34:20.267Z,6.95
2023-05-17T21:36:48.555Z,6.94
2023-05-17T21:39:17.100Z,6.73
2023-05-17T21:41:45.343Z,6.62
2023-05-17T21:44:13.645Z,6.61
2023-05-17T21:46:43.405Z,6.56
2023-05-17T21:49:11.773Z,6.66
2023-05-17T21:51:41.601Z,6.72
2023-05-17T21:54:09.842Z,6.76
2023-05-17T21:56:38.242Z,6.69
2023-05-17T21:59:06.466Z,6.62
2023-05-17T22:01:34.747Z,6.62
2023-05-17T22:07:01.718Z,6.71
2023-05-17T22:09:31.006Z,6.62
2023-05-17T22:11:59.659Z,6.56
2023-05-17T22:14:33.257Z,6.18
2023-05-17T22:17:03.153Z,6.24
2023-05-17T22:19:32.787Z,6.26
2023-05-17T22:22:03.019Z,6.29
2023-05-17T22:24:31.452Z,6.25
2023-05-17T22:26:59.752Z,6.24
2023-05-17T22:29:28.241Z,6.02
2023-05-17T22:31:56.619Z,6.01
2023-05-17T22:34:33.022Z,6.03
2023-05-17T22:37:01.651Z,5.91
2023-05-17T22:39:29.883Z,5.86
2023-05-17T22:41:58.262Z,5.79
2023-05-17T22:44:27.331Z,5.85
2023-05-17T22:46:57.705Z,5.75
2023-05-17T22:49:26.090Z,5.83
2023-05-17T22:51:56.038Z,5.93
2023-05-17T22:54:26.741Z,5.87
2023-05-17T22:56:55.298Z,5.95
2023-05-17T22:59:23.858Z,5.63
2023-05-17T23:01:52.262Z,5.72
2023-05-17T23:04:25.881Z,5.76
2023-05-17T23:07:02.389Z,5.74
2023-05-17T23:09:31.201Z,5.62
2023-05-17T23:12:00.513Z,5.55
2023-05-17T23:14:57.900Z,5.43
2023-05-17T23:17:26.575Z,5.57
2023-05-17T23:19:55.664Z,5.66
2023-05-17T23:22:31.205Z,5.52
2023-05-17T23:25:00.305Z,5.63
2023-05-17T23:27:30.085Z,5.62
2023-05-17T23:29:58.512Z,5.53
2023-05-17T23:32:26.836Z,5.53
2023-05-17T23:34:58.561Z,5.64
2023-05-17T23:37:28.215Z,5.64
2023-05-17T23:39:56.602Z,5.61
2023-05-17T23:42:26.595Z,5.83
2023-05-17T23:44:54.945Z,5.90
2023-05-17T23:47:23.252Z,5.96
2023-05-17T23:49:52.823Z,6.05
2023-05-17T23:52:23.350Z,6.03
2023-05-17T23:54:57.365Z,6.03
2023-05-17T23:57:25.754Z,6.08
2023-05-17T23:59:54.068Z,6.03
